Página principal
METAR-TAF:

METAR-TAF

Aeroportos :

Aeroporto Internacional de Fuaʻamotu

Tongatapu, Tonga

latitude: 21-14S, longitude: 175-09W, altura: 38 m

Observação actual do tempo

O boletim foi feito há 1 hora e 16 minutos, às 04:00 UTC
Vento 10 kt de es-sudeste
Temperatura 22°C
Humidade 65%
Pressão 1017 hPa
Visibilidade 10 km ou mais
Nuvens dispersasa uma altura de 3500 ft

METAR: NFTF 230400Z 12010KT 9999 SCT035 22/15 Q1017

Hora: 18:16 (05:16 UTC)

Previsão

O boletim foi feito há 5 horas e 53 minutos, às 23:23 UTC
Previsão válida de 23 às 00 UTC a 23 às 24 UTC
Vento 10 kt de es-sudeste
Visibilidade 10 km ou mais
Nuvens dispersasa uma altura de 2000 ft

TAF: NFTF 222323Z 2300/2324 12010KT 9999 SCT020

Observações e previsões do tempo de mais de 4000 aeroportos (mensagens METAR e TAF).

As estações disponíveis são os pontos amarelos e vermelhos sobre o mapa.

Mova o rato sobre o mapa para ver o nome da estação.

Depois clique no ponto para visualizar as observações e previsões meteorológicas.

Para alterar o mapa : clique nos botões verdes com uma cruz preta para aumentar o zoom; no botão verde com uma pitada de zoom; ou nas setas verdes para mapas adjacentes.


METAR-TAF: